createdAt,value
2022-10-20T00:00:58.531Z,95267.06
2022-10-20T00:03:26.716Z,95265.16
2022-10-20T00:05:54.944Z,95268.13
2022-10-20T00:08:23.977Z,95264.09
2022-10-20T00:10:55.328Z,95258.41
2022-10-20T00:13:23.157Z,95259.47
2022-10-20T00:15:51.380Z,95259.22
2022-10-20T00:18:19.192Z,95250.00
2022-10-20T00:20:46.902Z,95255.69
2022-10-20T00:23:14.688Z,95248.31
2022-10-20T00:25:43.821Z,95248.31
2022-10-20T00:28:11.600Z,95239.09
2022-10-20T00:30:39.609Z,95253.28
2022-10-20T00:33:07.272Z,95239.44
2022-10-20T00:35:38.280Z,95241.69
2022-10-20T00:38:06.276Z,95242.50
2022-10-20T00:40:34.021Z,95235.75
2022-10-20T00:43:03.014Z,95235.03
2022-10-20T00:45:30.812Z,95227.66
2022-10-20T00:48:00.948Z,95226.34
2022-10-20T00:50:32.149Z,95228.00
2022-10-20T00:53:00.921Z,95217.94
2022-10-20T00:55:31.259Z,95221.84
2022-10-20T00:58:00.035Z,95214.22
2022-10-20T01:00:29.534Z,95213.19
2022-10-20T01:02:59.544Z,95210.22
2022-10-20T01:05:27.248Z,95216.72
2022-10-20T01:07:55.273Z,95210.44
2022-10-20T01:10:24.640Z,95206.63
2022-10-20T01:12:55.463Z,95202.03
2022-10-20T01:15:31.834Z,95206.97
2022-10-20T01:18:05.951Z,95199.41
2022-10-20T01:20:55.879Z,95186.91
2022-10-20T01:23:51.300Z,95185.59
2022-10-20T01:26:35.034Z,95205.25
2022-10-20T01:29:07.089Z,95199.56
2022-10-20T01:31:41.643Z,95192.78
2022-10-20T01:34:13.093Z,95189.00
2022-10-20T01:36:44.952Z,95191.22
2022-10-20T01:39:17.687Z,95191.81
2022-10-20T01:41:50.755Z,95184.78
2022-10-20T01:44:20.816Z,95178.00
2022-10-20T01:46:49.309Z,95176.09
2022-10-20T01:49:17.527Z,95170.72
2022-10-20T01:51:45.176Z,95171.59
2022-10-20T01:54:22.799Z,95179.75
2022-10-20T01:57:05.098Z,95174.63
2022-10-20T01:59:43.989Z,95167.84
2022-10-20T02:02:23.654Z,95172.00
2022-10-20T02:05:02.628Z,95166.78
2022-10-20T02:07:31.484Z,95169.50
2022-10-20T02:10:04.648Z,95163.00
2022-10-20T02:12:36.437Z,95167.69
2022-10-20T02:15:07.725Z,95158.09
2022-10-20T02:17:37.020Z,95149.91
2022-10-20T02:20:07.091Z,95154.56
2022-10-20T02:22:35.333Z,95156.19
2022-10-20T02:25:03.181Z,95156.75
2022-10-20T02:27:34.115Z,95147.75
2022-10-20T02:30:05.391Z,95137.09
2022-10-20T02:32:35.548Z,95133.81
2022-10-20T02:35:06.838Z,95127.53
2022-10-20T02:37:35.111Z,95126.44
2022-10-20T02:40:03.281Z,95131.66
2022-10-20T02:42:30.959Z,95133.00
2022-10-20T02:44:58.595Z,95135.47
2022-10-20T02:47:26.386Z,95135.19
2022-10-20T02:49:55.398Z,95128.44
2022-10-20T02:52:23.188Z,95131.97
2022-10-20T02:54:50.894Z,95140.75
2022-10-20T02:57:18.588Z,95126.03
2022-10-20T02:59:46.301Z,95139.16
2022-10-20T03:02:14.024Z,95132.91
2022-10-20T03:04:41.841Z,95136.44
2022-10-20T03:07:10.976Z,95136.44
2022-10-20T03:09:38.670Z,95133.47
2022-10-20T03:12:07.108Z,95140.59
2022-10-20T03:14:34.760Z,95134.84
2022-10-20T03:17:02.415Z,95127.75
2022-10-20T03:19:30.144Z,95128.31
2022-10-20T03:21:57.768Z,95124.53
2022-10-20T03:24:26.857Z,95132.97
2022-10-20T03:26:54.497Z,95122.31
2022-10-20T03:29:22.164Z,95132.41
2022-10-20T03:34:22.729Z,95124.53
2022-10-20T03:36:51.329Z,95120.13
2022-10-20T03:39:19.076Z,95127.25
2022-10-20T03:41:48.134Z,95127.19
2022-10-20T03:44:15.854Z,95124.47
2022-10-20T03:46:43.533Z,95133.78
2022-10-20T03:49:11.246Z,95128.31
2022-10-20T03:51:39.037Z,95134.59
2022-10-20T03:54:06.817Z,95135.44
2022-10-20T03:56:34.449Z,95133.78
2022-10-20T04:01:36.244Z,95131.88
2022-10-20T04:04:03.996Z,95133.78
2022-10-20T04:06:32.740Z,95132.72
2022-10-20T04:09:00.505Z,95131.31
2022-10-20T04:11:28.242Z,95129.31
2022-10-20T04:13:55.902Z,95122.72
2022-10-20T04:16:25.167Z,95118.34
2022-10-20T04:18:53.101Z,95112.06
2022-10-20T04:21:20.852Z,95105.53
2022-10-20T04:23:48.589Z,95095.94
2022-10-20T04:26:17.056Z,95100.34
2022-10-20T04:28:44.715Z,95102.22
2022-10-20T04:31:12.336Z,95112.31
2022-10-20T04:33:41.474Z,95106.59
2022-10-20T04:36:11.365Z,95117.28
2022-10-20T04:38:39.102Z,95111.81
2022-10-20T04:41:07.044Z,95106.53
2022-10-20T04:43:35.581Z,95102.13
2022-10-20T04:46:07.041Z,95098.09
2022-10-20T04:48:36.417Z,95101.41
2022-10-20T04:51:07.720Z,95105.19
2022-10-20T04:53:36.078Z,95101.06
2022-10-20T04:56:03.977Z,95094.81
2022-10-20T04:58:31.748Z,95100.59
2022-10-20T05:01:02.465Z,95103.56
2022-10-20T05:03:30.172Z,95101.97
2022-10-20T05:06:10.413Z,95103.13
2022-10-20T05:08:38.493Z,95098.00
2022-10-20T05:11:06.539Z,95097.25
2022-10-20T05:13:34.464Z,95096.16
2022-10-20T05:16:02.258Z,95094.78
2022-10-20T05:18:30.148Z,95096.94
2022-10-20T05:21:08.205Z,95093.28
2022-10-20T05:23:38.657Z,95091.31
2022-10-20T05:26:07.920Z,95081.25
2022-10-20T05:28:35.807Z,95080.16
2022-10-20T05:31:03.848Z,95077.41
2022-10-20T05:33:31.562Z,95079.66
2022-10-20T05:35:59.274Z,95076.34
2022-10-20T05:38:26.932Z,95077.91
2022-10-20T05:40:55.968Z,95083.91
2022-10-20T05:43:23.603Z,95076.47
2022-10-20T05:45:54.979Z,95084.06
2022-10-20T05:48:22.596Z,95080.75
2022-10-20T05:50:50.279Z,95084.81
2022-10-20T05:53:17.929Z,95065.22
2022-10-20T05:55:45.584Z,95076.63
2022-10-20T05:58:16.860Z,95076.88
2022-10-20T06:00:52.743Z,95080.66
2022-10-20T06:03:23.689Z,95089.34
2022-10-20T06:05:58.361Z,95089.69
2022-10-20T06:08:26.763Z,95082.34
2022-10-20T06:10:54.440Z,95085.88
2022-10-20T06:13:23.484Z,95087.28
2022-10-20T06:15:51.179Z,95096.78
2022-10-20T06:18:18.849Z,95090.84
2022-10-20T06:20:46.533Z,95092.50
2022-10-20T06:23:14.254Z,95091.66
2022-10-20T06:25:41.897Z,95089.19
2022-10-20T06:28:09.522Z,95093.97
2022-10-20T06:30:38.549Z,95079.78
2022-10-20T06:33:06.192Z,95086.53
2022-10-20T06:35:33.910Z,95086.72
2022-10-20T06:38:01.558Z,95085.06
2022-10-20T06:40:29.223Z,95083.97
2022-10-20T06:42:56.947Z,95091.34
2022-10-20T06:45:24.614Z,95086.72
2022-10-20T06:47:53.630Z,95089.28
2022-10-20T06:50:21.290Z,95084.41
2022-10-20T06:52:49.286Z,95089.03
2022-10-20T06:55:17.216Z,95078.44
2022-10-20T06:57:44.857Z,95077.69
2022-10-20T07:00:13.253Z,95085.13
2022-10-20T07:02:40.908Z,95092.09
2022-10-20T07:05:10.334Z,95086.69
2022-10-20T07:07:38.033Z,95092.47
2022-10-20T07:10:06.141Z,95098.25
2022-10-20T07:12:34.009Z,95091.78
2022-10-20T07:15:01.816Z,95102.22
2022-10-20T07:17:29.517Z,95099.19
2022-10-20T07:19:57.145Z,95102.88
2022-10-20T07:22:26.241Z,95099.34
2022-10-20T07:24:54.216Z,95091.47
2022-10-20T07:27:21.840Z,95093.41
2022-10-20T07:29:49.505Z,95084.41
2022-10-20T07:32:17.149Z,95084.09
2022-10-20T07:34:44.961Z,95077.56
2022-10-20T07:37:12.649Z,95086.63
2022-10-20T07:39:41.868Z,95078.50
2022-10-20T07:42:09.500Z,95063.88
2022-10-20T07:44:37.173Z,95069.06
2022-10-20T07:47:04.830Z,95064.44
2022-10-20T07:49:43.881Z,95074.28
2022-10-20T07:52:12.577Z,95069.44
2022-10-20T07:54:41.582Z,95069.25
2022-10-20T07:57:09.213Z,95071.78
2022-10-20T07:59:36.871Z,95081.75
2022-10-20T08:02:04.932Z,95070.22
2022-10-20T08:04:32.677Z,95067.03
2022-10-20T08:07:00.750Z,95064.13
2022-10-20T08:09:28.600Z,95068.03
2022-10-20T08:11:57.793Z,95067.28
2022-10-20T08:14:27.653Z,95074.59
2022-10-20T08:17:06.577Z,95053.19
2022-10-20T08:19:56.784Z,95052.72
2022-10-20T08:22:24.474Z,95055.41
2022-10-20T08:24:52.311Z,95046.94
2022-10-20T08:27:21.446Z,95043.16
2022-10-20T08:29:59.893Z,95036.13
2022-10-20T08:32:34.329Z,95037.28
2022-10-20T08:35:02.281Z,95042.56
2022-10-20T08:37:30.925Z,95039.94
2022-10-20T08:39:58.661Z,95044.84
2022-10-20T08:42:27.829Z,95037.78
2022-10-20T08:44:56.930Z,95036.16
2022-10-20T08:47:30.655Z,95037.00
2022-10-20T08:50:01.407Z,95033.00
2022-10-20T08:52:29.322Z,95038.88
2022-10-20T08:54:58.652Z,95033.00
2022-10-20T08:57:30.385Z,95040.66
2022-10-20T09:00:09.171Z,95034.19
2022-10-20T09:02:37.019Z,95038.06
2022-10-20T09:05:06.274Z,95041.66
2022-10-20T09:07:35.616Z,95038.19
2022-10-20T09:10:07.147Z,95035.78
2022-10-20T09:12:36.952Z,95031.44
2022-10-20T09:15:05.107Z,95024.59
2022-10-20T09:17:33.307Z,95038.94
2022-10-20T09:20:01.665Z,95034.56
2022-10-20T09:22:35.562Z,95037.28
2022-10-20T09:25:04.196Z,95024.72
2022-10-20T09:27:34.701Z,95023.63
2022-10-20T09:30:17.495Z,95029.09
2022-10-20T09:32:55.520Z,95025.81
2022-10-20T09:35:26.384Z,95031.34
2022-10-20T09:37:58.284Z,95020.38
2022-10-20T09:40:27.145Z,95020.09
2022-10-20T09:42:56.407Z,95023.63
2022-10-20T09:45:28.594Z,95028.56
2022-10-20T09:47:57.917Z,95017.06
2022-10-20T09:50:28.937Z,95035.44
2022-10-20T09:52:57.212Z,95020.03
2022-10-20T09:55:29.250Z,95023.06
2022-10-20T09:57:58.361Z,95018.66
2022-10-20T10:00:37.814Z,95006.78
2022-10-20T10:03:11.884Z,95016.31
2022-10-20T10:05:39.562Z,95018.50
2022-10-20T10:08:14.932Z,95012.47
2022-10-20T10:10:44.792Z,95013.47
2022-10-20T10:13:25.099Z,95015.72
2022-10-20T10:16:02.794Z,95013.84
2022-10-20T10:18:30.878Z,95014.06
2022-10-20T10:21:00.536Z,95008.03
2022-10-20T10:23:29.214Z,95014.06
2022-10-20T10:26:00.617Z,95013.91
2022-10-20T10:28:36.024Z,95009.75
2022-10-20T10:31:24.712Z,95019.31
2022-10-20T10:33:55.304Z,95013.50
2022-10-20T10:36:30.172Z,95012.31
2022-10-20T10:38:58.554Z,95012.47
2022-10-20T10:41:37.279Z,95007.97
2022-10-20T10:44:10.933Z,95004.34
2022-10-20T10:49:26.198Z,95000.78
2022-10-20T10:52:01.083Z,94995.59
2022-10-20T10:54:39.051Z,94987.34
2022-10-20T10:57:14.478Z,94994.50
2022-10-20T10:59:44.554Z,94991.44
2022-10-20T11:02:28.108Z,94982.41
2022-10-20T11:05:21.159Z,94970.19
2022-10-20T11:07:57.020Z,94972.56
2022-10-20T11:10:29.511Z,94979.78
2022-10-20T11:13:19.224Z,94987.69
2022-10-20T11:16:02.866Z,94986.53
2022-10-20T11:19:00.317Z,94988.06
2022-10-20T11:21:32.172Z,94982.56
2022-10-20T11:24:16.888Z,94985.03
2022-10-20T11:26:46.365Z,94988.31
2022-10-20T11:29:18.065Z,94979.47
2022-10-20T11:31:52.273Z,94971.75
2022-10-20T11:34:26.645Z,94974.50
2022-10-20T11:36:58.493Z,94965.34
2022-10-20T11:39:29.805Z,94958.91
2022-10-20T11:42:02.449Z,94955.78
2022-10-20T11:44:34.393Z,94955.09
2022-10-20T11:47:04.469Z,94952.34
2022-10-20T11:49:34.788Z,94955.50
2022-10-20T11:52:38.496Z,94950.28
2022-10-20T11:55:19.984Z,94948.34
2022-10-20T11:58:01.184Z,94944.19
2022-10-20T12:00:41.240Z,94946.84
2022-10-20T12:03:30.194Z,94949.94
2022-10-20T12:06:31.591Z,94954.50
2022-10-20T12:09:32.854Z,94947.38
2022-10-20T12:12:03.599Z,94943.16
2022-10-20T12:14:36.212Z,94948.03
2022-10-20T12:17:28.724Z,94951.09
2022-10-20T12:20:11.165Z,94953.19
2022-10-20T12:22:42.501Z,94967.16
2022-10-20T12:25:21.116Z,94966.75
2022-10-20T12:28:27.869Z,94951.78
2022-10-20T12:30:57.459Z,94944.41
2022-10-20T12:33:38.017Z,94939.63
2022-10-20T12:36:25.076Z,94941.09
2022-10-20T12:38:55.415Z,94939.59
2022-10-20T12:41:27.716Z,94935.41
2022-10-20T12:43:56.085Z,94951.22
2022-10-20T12:46:27.926Z,94946.41
2022-10-20T12:49:00.079Z,94944.78
2022-10-20T13:06:55.038Z,94969.41
2022-10-20T13:09:32.379Z,94966.78
2022-10-20T13:12:37.757Z,94967.47
2022-10-20T13:18:53.761Z,94965.81
2022-10-20T13:26:01.750Z,94986.03
2022-10-20T13:28:36.078Z,94972.34
2022-10-20T13:31:18.208Z,94980.16
2022-10-20T13:34:03.749Z,94968.63
2022-10-20T13:36:54.890Z,94963.34
2022-10-20T13:39:29.562Z,94963.59
2022-10-20T13:42:05.463Z,94955.31
2022-10-20T13:44:48.855Z,94964.69
2022-10-20T13:47:44.046Z,94968.53
2022-10-20T13:50:14.302Z,94958.63
2022-10-20T13:52:44.000Z,94972.00
2022-10-20T13:55:18.327Z,94964.13
2022-10-20T13:57:55.291Z,94965.75
2022-10-20T14:00:30.283Z,94960.50
2022-10-20T14:03:01.190Z,94957.69
2022-10-20T14:05:30.413Z,94962.81
2022-10-20T14:08:04.676Z,94965.34
2022-10-20T14:10:41.287Z,94948.78
2022-10-20T14:13:10.490Z,94949.78
2022-10-20T14:15:39.845Z,94946.16
2022-10-20T14:19:09.090Z,94957.72
2022-10-20T14:21:44.276Z,94967.06
2022-10-20T14:24:15.417Z,94966.94
2022-10-20T14:26:44.462Z,94976.84
2022-10-20T14:29:13.749Z,94987.22
2022-10-20T14:31:43.093Z,94986.94
2022-10-20T14:34:20.956Z,94994.72
2022-10-20T14:36:49.493Z,94985.63
2022-10-20T14:39:31.354Z,94969.91
2022-10-20T14:42:01.510Z,94953.09
2022-10-20T14:44:31.929Z,94948.94
2022-10-20T14:47:05.467Z,94941.78
2022-10-20T14:49:35.299Z,94958.81
2022-10-20T14:52:04.611Z,94957.72
2022-10-20T15:08:29.317Z,94939.34
2022-10-20T15:10:57.518Z,94938.00
2022-10-20T15:13:28.282Z,94939.13
2022-10-20T15:15:57.617Z,94929.53
2022-10-20T15:18:47.302Z,94925.38
2022-10-20T15:21:15.194Z,94925.13
2022-10-20T15:23:44.560Z,94921.66
2022-10-20T15:26:14.785Z,94913.47
2022-10-20T15:28:46.161Z,94913.50
2022-10-20T15:32:27.267Z,94898.94
2022-10-20T15:34:55.260Z,94887.19
2022-10-20T15:37:23.126Z,94879.53
2022-10-20T15:39:54.512Z,94876.28
2022-10-20T15:42:28.299Z,94877.41
2022-10-20T15:44:58.833Z,94869.75
2022-10-20T15:47:28.508Z,94879.72
2022-10-20T15:49:58.142Z,94888.50
2022-10-20T15:52:30.926Z,94873.44
2022-10-20T15:57:35.584Z,94873.44
2022-10-20T16:00:34.729Z,94862.72
2022-10-20T16:03:24.469Z,94866.00
2022-10-20T16:05:52.421Z,94865.47
2022-10-20T16:11:47.227Z,94849.59
2022-10-20T16:14:16.959Z,94852.09
2022-10-20T16:16:54.606Z,94847.44
2022-10-20T16:19:22.576Z,94835.47
2022-10-20T16:21:50.500Z,94825.03
2022-10-20T16:24:27.415Z,94832.72
2022-10-20T16:49:33.628Z,94826.28
2022-10-20T16:52:01.718Z,94825.16
2022-10-20T16:54:29.944Z,94835.59
2022-10-20T16:56:58.003Z,94830.66
2022-10-20T16:59:25.975Z,94811.47
2022-10-20T17:01:55.121Z,94822.97
2022-10-20T17:04:31.198Z,94829.28
2022-10-20T17:07:15.212Z,94835.06
2022-10-20T17:09:48.011Z,94834.50
2022-10-20T17:15:30.581Z,94840.25
2022-10-20T17:20:59.322Z,94850.94
2022-10-20T17:23:37.476Z,94838.88
2022-10-20T17:26:12.752Z,94836.97
2022-10-20T17:28:59.856Z,94836.69
2022-10-20T17:31:29.878Z,94819.44
2022-10-20T17:34:09.626Z,94812.59
2022-10-20T17:37:55.567Z,94816.16
2022-10-20T17:40:52.273Z,94811.50
2022-10-20T17:43:20.680Z,94817.81
2022-10-20T17:45:56.871Z,94811.50
2022-10-20T17:48:24.892Z,94805.47
2022-10-20T17:51:00.239Z,94818.88
2022-10-20T17:53:27.988Z,94824.63
2022-10-20T17:56:01.520Z,94813.69
2022-10-20T17:58:29.465Z,94800.53
2022-10-20T18:00:57.364Z,94806.84
2022-10-20T18:03:25.180Z,94818.06
2022-10-20T18:05:52.931Z,94816.44
2022-10-20T18:08:20.644Z,94814.50
2022-10-20T18:10:49.028Z,94815.56
2022-10-20T18:13:17.993Z,94829.53
2022-10-20T18:15:45.625Z,94818.28
2022-10-20T18:18:13.254Z,94818.53
2022-10-20T18:20:40.998Z,94811.44
2022-10-20T18:23:08.646Z,94813.09
2022-10-20T18:25:36.609Z,94803.81
2022-10-20T18:28:04.419Z,94789.84
2022-10-20T18:30:38.043Z,94791.22
2022-10-20T18:33:05.757Z,94801.63
2022-10-20T18:35:33.473Z,94787.91
2022-10-20T18:38:01.183Z,94785.19
2022-10-20T18:40:28.796Z,94786.28
2022-10-20T18:42:56.495Z,94790.66
2022-10-20T18:45:25.987Z,94796.94
2022-10-20T18:47:55.240Z,94789.00
2022-10-20T18:50:22.852Z,94793.09
2022-10-20T18:52:50.596Z,94798.00
2022-10-20T18:55:18.293Z,94789.00
2022-10-20T18:57:45.932Z,94785.69
2022-10-20T19:00:14.727Z,94787.91
2022-10-20T19:02:42.417Z,94774.75
2022-10-20T19:05:11.662Z,94772.28
2022-10-20T19:07:39.636Z,94777.22
2022-10-20T19:10:08.297Z,94769.81
2022-10-20T19:12:36.334Z,94766.81
2022-10-20T19:15:04.403Z,94763.78
2022-10-20T19:17:33.717Z,94758.88
2022-10-20T19:20:01.429Z,94763.78
2022-10-20T19:22:30.486Z,94770.34
2022-10-20T19:24:58.163Z,94781.53
2022-10-20T19:27:27.163Z,94784.78
2022-10-20T19:29:55.872Z,94786.66
2022-10-20T19:32:23.519Z,94777.34
2022-10-20T19:34:51.171Z,94787.19
2022-10-20T19:37:18.896Z,94788.28
2022-10-20T19:39:47.925Z,94788.00
2022-10-20T19:42:15.581Z,94782.78
2022-10-20T19:44:43.240Z,94789.88
2022-10-20T19:47:10.947Z,94780.22
2022-10-20T19:49:38.704Z,94782.66
2022-10-20T19:52:06.830Z,94782.69
2022-10-20T19:54:35.005Z,94781.59
2022-10-20T19:57:04.438Z,94786.53
2022-10-20T19:59:32.143Z,94790.38
2022-10-20T20:01:59.831Z,94796.91
2022-10-20T20:04:27.544Z,94802.13
2022-10-20T20:06:59.659Z,94809.25
2022-10-20T20:09:30.172Z,94807.28
2022-10-20T20:11:58.304Z,94814.03
2022-10-20T20:14:27.470Z,94819.22
2022-10-20T20:16:55.121Z,94821.44
2022-10-20T20:19:22.755Z,94824.16
2022-10-20T20:21:50.463Z,94826.88
2022-10-20T20:24:18.177Z,94832.81
2022-10-20T20:26:46.961Z,94833.28
2022-10-20T20:29:14.696Z,94852.06
2022-10-20T20:31:44.784Z,94855.53
2022-10-20T20:34:12.555Z,94853.91
2022-10-20T20:36:40.360Z,94864.06
2022-10-20T20:39:08.244Z,94869.56
2022-10-20T20:41:36.035Z,94876.97
2022-10-20T20:44:07.961Z,94880.81
2022-10-20T20:46:36.439Z,94875.91
2022-10-20T20:49:05.745Z,94889.00
2022-10-20T20:51:33.839Z,94885.59
2022-10-20T20:54:02.186Z,94888.25
2022-10-20T20:56:29.851Z,94893.44
2022-10-20T20:58:57.539Z,94903.81
2022-10-20T21:01:28.149Z,94907.41
2022-10-20T21:03:56.696Z,94902.25
2022-10-20T21:06:33.839Z,94908.25
2022-10-20T21:09:06.244Z,94910.72
2022-10-20T21:11:33.954Z,94918.94
2022-10-20T21:14:01.693Z,94924.94
2022-10-20T21:16:30.869Z,94933.13
2022-10-20T21:18:59.852Z,94934.78
2022-10-20T21:21:29.984Z,94939.44
2022-10-20T21:23:58.156Z,94935.34
2022-10-20T21:26:26.011Z,94940.28
2022-10-20T21:28:53.870Z,94950.16
2022-10-20T21:31:24.975Z,94944.41
2022-10-20T21:33:53.684Z,94946.84
2022-10-20T21:36:22.117Z,94946.31
2022-10-20T21:38:52.202Z,94950.72
2022-10-20T21:41:21.457Z,94938.94
2022-10-20T21:43:50.264Z,94943.88
2022-10-20T21:46:19.866Z,94934.38
2022-10-20T21:48:48.761Z,94938.72
2022-10-20T21:51:18.449Z,94937.09
2022-10-20T21:53:46.519Z,94940.34
2022-10-20T21:56:16.155Z,94928.91
2022-10-20T21:58:44.144Z,94923.19
2022-10-20T22:01:12.749Z,94921.81
2022-10-20T22:03:40.897Z,94919.09
2022-10-20T22:06:09.337Z,94920.19
2022-10-20T22:08:37.474Z,94927.28
2022-10-20T22:11:06.092Z,94922.63
2022-10-20T22:13:35.196Z,94920.72
2022-10-20T22:16:02.830Z,94921.81
2022-10-20T22:18:30.529Z,94928.94
2022-10-20T22:20:58.180Z,94937.91
2022-10-20T22:23:25.874Z,94933.22
2022-10-20T22:25:54.361Z,94929.38
2022-10-20T22:28:22.061Z,94922.25
2022-10-20T22:30:51.175Z,94917.31
2022-10-20T22:33:18.981Z,94924.38
2022-10-20T22:35:46.605Z,94928.44
2022-10-20T22:38:14.365Z,94919.41
2022-10-20T22:40:41.967Z,94915.91
2022-10-20T22:43:09.647Z,94908.25
2022-10-20T22:45:38.139Z,94894.59
2022-10-20T22:48:07.581Z,94892.38
2022-10-20T22:50:35.217Z,94881.22
2022-10-20T22:53:02.815Z,94881.75
2022-10-20T22:55:30.516Z,94881.25
2022-10-20T23:00:26.878Z,94876.41
2022-10-20T23:02:54.516Z,94881.06
2022-10-20T23:05:23.573Z,94875.66
2022-10-20T23:07:51.240Z,94865.84
2022-10-20T23:10:19.065Z,94859.00
2022-10-20T23:12:46.684Z,94853.28
2022-10-20T23:15:14.424Z,94849.72
2022-10-20T23:17:42.085Z,94843.19
2022-10-20T23:20:10.845Z,94837.44
2022-10-20T23:22:39.844Z,94838.31
2022-10-20T23:25:08.196Z,94845.41
2022-10-20T23:27:36.721Z,94839.16
2022-10-20T23:30:05.321Z,94845.19
2022-10-20T23:32:33.767Z,94845.50
2022-10-20T23:35:01.418Z,94837.59
2022-10-20T23:37:29.097Z,94828.59
2022-10-20T23:39:58.125Z,94814.94
2022-10-20T23:42:25.769Z,94820.69
2022-10-20T23:44:53.415Z,94815.78
2022-10-20T23:47:21.095Z,94815.00
2022-10-20T23:49:48.715Z,94814.72
2022-10-20T23:52:16.385Z,94810.06
2022-10-20T23:54:43.956Z,94816.63
2022-10-20T23:57:13.021Z,94814.72
2022-10-20T23:59:40.642Z,94816.63
